HAZ4816 ZBSJ-ZYTX
Flight info
| Callsign | HAZ4816 |
|---|---|
| Flight time | 1h 21m |
| Altitude | 35100 |
| Route | AREKU W640 BELAX G212 VYK W34 OTBUL W35 CHG A575 OMDUS |
| Aircraft | B738/M-SDE2E3FGHIRWXY/LB1 |
Departure
| Time | 2026-05-05 19:58 |
|---|---|
| Airport | Shijiazhuang Zhengding International Airport (ZBSJ) |
Arrival
| Time | 2026-05-05 21:20 |
|---|---|
| Airport | Shenyang Taoxian International Airport (ZYTX) |
| Time | Latitude | Longitude | Altitude | Speed | Heading |
|---|---|---|---|---|---|
| 2026-05-05 19:38 | 38.27800 | 114.69383 | 238 ft | 0 kts | 237° |
| 2026-05-05 19:45 | 38.27807 | 114.69396 | 237 ft | 2 kts | 237° |
| 2026-05-05 19:46 | 38.27816 | 114.69412 | 237 ft | 2 kts | 237° |
| 2026-05-05 19:46 | 38.27824 | 114.69428 | 237 ft | 2 kts | 237° |
| 2026-05-05 19:46 | 38.27832 | 114.69444 | 237 ft | 2 kts | 252° |
| 2026-05-05 19:46 | 38.27833 | 114.69463 | 237 ft | 2 kts | 288° |
| 2026-05-05 19:47 | 38.27825 | 114.69479 | 237 ft | 1 kts | 320° |
| 2026-05-05 19:47 | 38.27820 | 114.69484 | 237 ft | 1 kts | 331° |
| 2026-05-05 19:47 | 38.27817 | 114.69486 | 237 ft | 0 kts | 328° |
| 2026-05-05 19:49 | 38.27822 | 114.69482 | 237 ft | 2 kts | 326° |
| 2026-05-05 19:49 | 38.27849 | 114.69459 | 237 ft | 6 kts | 327° |
| 2026-05-05 19:50 | 38.27894 | 114.69423 | 238 ft | 7 kts | 328° |
| 2026-05-05 19:50 | 38.27937 | 114.69388 | 237 ft | 7 kts | 327° |
| 2026-05-05 19:50 | 38.27977 | 114.69355 | 237 ft | 6 kts | 327° |
| 2026-05-05 19:50 | 38.28016 | 114.69342 | 237 ft | 5 kts | 22° |
| 2026-05-05 19:51 | 38.28043 | 114.69377 | 237 ft | 5 kts | 57° |
| 2026-05-05 19:51 | 38.28063 | 114.69415 | 237 ft | 4 kts | 57° |
| 2026-05-05 19:51 | 38.28087 | 114.69438 | 238 ft | 5 kts | 15° |
| 2026-05-05 19:51 | 38.28142 | 114.69414 | 237 ft | 12 kts | 328° |
| 2026-05-05 19:52 | 38.28224 | 114.69347 | 237 ft | 14 kts | 328° |
| 2026-05-05 19:52 | 38.28316 | 114.69273 | 239 ft | 15 kts | 328° |
| 2026-05-05 19:52 | 38.28410 | 114.69197 | 240 ft | 16 kts | 326° |
| 2026-05-05 19:52 | 38.28509 | 114.69116 | 241 ft | 17 kts | 327° |
| 2026-05-05 19:53 | 38.28618 | 114.69027 | 241 ft | 19 kts | 327° |
| 2026-05-05 19:53 | 38.28736 | 114.68930 | 241 ft | 20 kts | 328° |
| 2026-05-05 19:53 | 38.28864 | 114.68828 | 241 ft | 22 kts | 328° |
| 2026-05-05 19:53 | 38.28997 | 114.68720 | 243 ft | 22 kts | 327° |
| 2026-05-05 19:54 | 38.29124 | 114.68617 | 244 ft | 18 kts | 328° |
| 2026-05-05 19:54 | 38.29194 | 114.68560 | 244 ft | 10 kts | 326° |
| 2026-05-05 19:54 | 38.29256 | 114.68529 | 245 ft | 9 kts | 9° |
| 2026-05-05 19:54 | 38.29293 | 114.68578 | 245 ft | 4 kts | 59° |
| 2026-05-05 19:55 | 38.29295 | 114.68581 | 245 ft | 0 kts | 59° |
| 2026-05-05 19:55 | 38.29308 | 114.68608 | 245 ft | 6 kts | 57° |
| 2026-05-05 19:56 | 38.29332 | 114.68679 | 244 ft | 9 kts | 91° |
| 2026-05-05 19:56 | 38.29299 | 114.68730 | 244 ft | 0 kts | 147° |
| 2026-05-05 19:56 | 38.29296 | 114.68733 | 244 ft | 3 kts | 146° |
| 2026-05-05 19:57 | 38.29144 | 114.68856 | 244 ft | 61 kts | 147° |
| 2026-05-05 19:57 | 38.28921 | 114.69038 | 241 ft | 95 kts | 148° |
| 2026-05-05 19:57 | 38.28279 | 114.69559 | 238 ft | 150 kts | 147° |
| 2026-05-05 19:58 | 38.27280 | 114.70397 | 433 ft | 183 kts | 146° |
| 2026-05-05 19:58 | 38.26247 | 114.71349 | 1165 ft | 185 kts | 145° |
| 2026-05-05 19:58 | 38.25234 | 114.72322 | 1813 ft | 194 kts | 147° |
| 2026-05-05 19:58 | 38.24144 | 114.73373 | 2480 ft | 196 kts | 146° |
| 2026-05-05 19:59 | 38.23188 | 114.74570 | 3212 ft | 198 kts | 129° |
| 2026-05-05 19:59 | 38.22526 | 114.76185 | 3669 ft | 215 kts | 109° |
| 2026-05-05 19:59 | 38.22311 | 114.78081 | 4335 ft | 222 kts | 91° |
| 2026-05-05 19:59 | 38.22552 | 114.80080 | 4718 ft | 240 kts | 72° |
| 2026-05-05 20:00 | 38.23344 | 114.81934 | 5483 ft | 239 kts | 50° |
| 2026-05-05 20:00 | 38.24594 | 114.83415 | 5836 ft | 258 kts | 31° |
| 2026-05-05 20:00 | 38.26349 | 114.84105 | 6104 ft | 272 kts | 356° |
| 2026-05-05 20:00 | 38.28244 | 114.83785 | 6638 ft | 280 kts | 345° |
| 2026-05-05 20:01 | 38.30186 | 114.83283 | 7285 ft | 286 kts | 345° |
| 2026-05-05 20:01 | 38.32117 | 114.82730 | 8023 ft | 286 kts | 341° |
| 2026-05-05 20:01 | 38.33991 | 114.81858 | 8749 ft | 286 kts | 330° |
| 2026-05-05 20:01 | 38.35705 | 114.80580 | 9443 ft | 287 kts | 325° |
| 2026-05-05 20:02 | 38.37399 | 114.79256 | 10195 ft | 288 kts | 325° |
| 2026-05-05 20:02 | 38.39148 | 114.77907 | 10668 ft | 301 kts | 325° |
| 2026-05-05 20:02 | 38.40978 | 114.76500 | 11097 ft | 313 kts | 326° |
| 2026-05-05 20:02 | 38.42883 | 114.75035 | 11539 ft | 326 kts | 326° |
| 2026-05-05 20:03 | 38.44915 | 114.73650 | 11895 ft | 341 kts | 334° |
| 2026-05-05 20:03 | 38.47270 | 114.72774 | 12255 ft | 359 kts | 349° |
| 2026-05-05 20:03 | 38.49833 | 114.72692 | 12574 ft | 377 kts | 3° |
| 2026-05-05 20:03 | 38.52447 | 114.73388 | 12969 ft | 392 kts | 15° |
| 2026-05-05 20:04 | 38.54955 | 114.74799 | 13594 ft | 400 kts | 28° |
| 2026-05-05 20:04 | 38.57151 | 114.77073 | 14277 ft | 409 kts | 45° |
| 2026-05-05 20:04 | 38.58782 | 114.80073 | 14926 ft | 418 kts | 60° |
| 2026-05-05 20:04 | 38.59807 | 114.83559 | 15596 ft | 426 kts | 73° |
| 2026-05-05 20:05 | 38.60348 | 114.87279 | 16198 ft | 433 kts | 82° |
| 2026-05-05 20:05 | 38.60480 | 114.91135 | 16863 ft | 437 kts | 90° |
| 2026-05-05 20:05 | 38.60546 | 114.95061 | 17385 ft | 443 kts | 82° |
| 2026-05-05 20:05 | 38.61145 | 114.98894 | 18054 ft | 444 kts | 72° |
| 2026-05-05 20:06 | 38.62082 | 115.02683 | 18544 ft | 450 kts | 69° |
| 2026-05-05 20:06 | 38.63064 | 115.06491 | 19196 ft | 453 kts | 70° |
| 2026-05-05 20:06 | 38.63976 | 115.10359 | 19704 ft | 460 kts | 71° |
| 2026-05-05 20:06 | 38.64829 | 115.14306 | 20276 ft | 464 kts | 73° |
| 2026-05-05 20:07 | 38.65641 | 115.18300 | 20820 ft | 469 kts | 73° |
| 2026-05-05 20:07 | 38.66437 | 115.22379 | 21392 ft | 472 kts | 74° |
| 2026-05-05 20:07 | 38.67214 | 115.26461 | 21813 ft | 479 kts | 74° |
| 2026-05-05 20:07 | 38.67993 | 115.30614 | 22387 ft | 481 kts | 74° |
| 2026-05-05 20:08 | 38.68769 | 115.34782 | 22905 ft | 485 kts | 74° |
| 2026-05-05 20:08 | 38.69552 | 115.39004 | 23298 ft | 491 kts | 74° |
| 2026-05-05 20:08 | 38.70337 | 115.43248 | 23803 ft | 494 kts | 74° |
| 2026-05-05 20:08 | 38.71172 | 115.47598 | 24205 ft | 500 kts | 73° |
| 2026-05-05 20:09 | 38.72147 | 115.51866 | 24621 ft | 503 kts | 68° |
| 2026-05-05 20:09 | 38.73474 | 115.55956 | 25159 ft | 501 kts | 61° |
| 2026-05-05 20:09 | 38.75066 | 115.59946 | 25606 ft | 503 kts | 57° |
| 2026-05-05 20:09 | 38.76798 | 115.63828 | 26053 ft | 505 kts | 54° |
| 2026-05-05 20:10 | 38.78615 | 115.67674 | 26446 ft | 508 kts | 54° |
| 2026-05-05 20:10 | 38.80490 | 115.71558 | 26927 ft | 510 kts | 53° |
| 2026-05-05 20:10 | 38.82298 | 115.75303 | 27536 ft | 507 kts | 54° |
| 2026-05-05 20:10 | 38.84117 | 115.79109 | 28259 ft | 502 kts | 53° |
| 2026-05-05 20:11 | 38.85938 | 115.82968 | 28828 ft | 501 kts | 53° |
| 2026-05-05 20:11 | 38.87716 | 115.86777 | 29348 ft | 500 kts | 53° |
| 2026-05-05 20:11 | 38.89505 | 115.90639 | 29779 ft | 502 kts | 53° |
| 2026-05-05 20:11 | 38.91262 | 115.94456 | 30197 ft | 503 kts | 53° |
| 2026-05-05 20:12 | 38.93034 | 115.98325 | 30605 ft | 503 kts | 53° |
| 2026-05-05 20:12 | 38.94742 | 116.02070 | 31056 ft | 503 kts | 53° |
| 2026-05-05 20:12 | 38.96505 | 116.05949 | 31547 ft | 501 kts | 52° |
| 2026-05-05 20:12 | 38.98240 | 116.09776 | 32015 ft | 499 kts | 52° |
| 2026-05-05 20:13 | 38.99978 | 116.13615 | 32446 ft | 498 kts | 52° |
| 2026-05-05 20:13 | 39.01729 | 116.17484 | 32827 ft | 498 kts | 52° |
| 2026-05-05 20:13 | 39.03464 | 116.21319 | 33171 ft | 499 kts | 52° |
| 2026-05-05 20:13 | 39.05211 | 116.25184 | 33525 ft | 499 kts | 51° |
| 2026-05-05 20:14 | 39.06938 | 116.29011 | 33900 ft | 499 kts | 51° |
| 2026-05-05 20:14 | 39.08679 | 116.32873 | 34373 ft | 497 kts | 51° |
| 2026-05-05 20:14 | 39.10428 | 116.36763 | 34746 ft | 497 kts | 51° |
| 2026-05-05 20:15 | 39.13664 | 116.43962 | 34755 ft | 496 kts | 51° |
| 2026-05-05 20:15 | 39.16931 | 116.51843 | 34748 ft | 505 kts | 60° |
| 2026-05-05 20:15 | 39.17977 | 116.56208 | 34748 ft | 515 kts | 72° |
| 2026-05-05 20:16 | 39.18409 | 116.60875 | 34751 ft | 524 kts | 83° |
| 2026-05-05 20:16 | 39.17701 | 116.70324 | 34755 ft | 533 kts | 96° |
| 2026-05-05 20:17 | 39.16296 | 116.79713 | 34754 ft | 534 kts | 99° |
| 2026-05-05 20:17 | 39.14737 | 116.89030 | 34755 ft | 533 kts | 99° |
| 2026-05-05 20:18 | 39.13174 | 116.98346 | 34768 ft | 531 kts | 98° |
| 2026-05-05 20:18 | 39.11742 | 117.07747 | 34777 ft | 533 kts | 97° |
| 2026-05-05 20:19 | 39.10511 | 117.17030 | 34790 ft | 527 kts | 95° |
| 2026-05-05 20:19 | 39.09343 | 117.26170 | 34784 ft | 528 kts | 95° |
| 2026-05-05 20:20 | 39.08218 | 117.35210 | 34786 ft | 528 kts | 93° |
| 2026-05-05 20:20 | 39.07654 | 117.44353 | 34790 ft | 522 kts | 87° |
| 2026-05-05 20:21 | 39.07523 | 117.53718 | 34795 ft | 521 kts | 85° |
| 2026-05-05 20:21 | 39.07506 | 117.63012 | 34789 ft | 520 kts | 84° |
| 2026-05-05 20:22 | 39.07467 | 117.72058 | 34786 ft | 521 kts | 86° |
| 2026-05-05 20:22 | 39.07382 | 117.81330 | 34799 ft | 520 kts | 86° |
| 2026-05-05 20:23 | 39.07262 | 117.90625 | 34810 ft | 520 kts | 86° |
| 2026-05-05 20:23 | 39.07066 | 117.99954 | 34807 ft | 523 kts | 89° |
| 2026-05-05 20:24 | 39.06221 | 118.09217 | 34800 ft | 523 kts | 95° |
| 2026-05-05 20:24 | 39.04864 | 118.18449 | 34806 ft | 525 kts | 98° |
| 2026-05-05 20:25 | 39.03404 | 118.27608 | 34803 ft | 524 kts | 96° |
| 2026-05-05 20:25 | 39.03005 | 118.32272 | 34797 ft | 516 kts | 84° |
| 2026-05-05 20:25 | 39.03447 | 118.36769 | 34812 ft | 501 kts | 68° |
| 2026-05-05 20:25 | 39.04686 | 118.40872 | 34808 ft | 492 kts | 54° |
| 2026-05-05 20:26 | 39.06500 | 118.44563 | 34811 ft | 479 kts | 44° |
| 2026-05-05 20:26 | 39.10807 | 118.50835 | 34804 ft | 460 kts | 32° |
| 2026-05-05 20:26 | 39.13360 | 118.53198 | 34811 ft | 445 kts | 19° |
| 2026-05-05 20:27 | 39.16162 | 118.54787 | 34812 ft | 435 kts | 9° |
| 2026-05-05 20:27 | 39.21929 | 118.56819 | 34809 ft | 425 kts | 4° |
| 2026-05-05 20:28 | 39.27712 | 118.58497 | 34811 ft | 422 kts | 2° |
| 2026-05-05 20:28 | 39.33477 | 118.60152 | 34812 ft | 425 kts | 3° |
| 2026-05-05 20:29 | 39.39230 | 118.61856 | 34814 ft | 426 kts | 3° |
| 2026-05-05 20:29 | 39.45011 | 118.63609 | 34815 ft | 425 kts | 3° |
| 2026-05-05 20:30 | 39.50813 | 118.65391 | 34816 ft | 424 kts | 4° |
| 2026-05-05 20:30 | 39.56565 | 118.67162 | 34820 ft | 426 kts | 4° |
| 2026-05-05 20:31 | 39.62331 | 118.68944 | 34820 ft | 424 kts | 4° |
| 2026-05-05 20:31 | 39.68106 | 118.70727 | 34821 ft | 428 kts | 4° |
| 2026-05-05 20:32 | 39.73793 | 118.73179 | 34823 ft | 437 kts | 14° |
| 2026-05-05 20:32 | 39.79204 | 118.77134 | 34830 ft | 452 kts | 23° |
| 2026-05-05 20:33 | 39.84380 | 118.81852 | 34820 ft | 456 kts | 26° |
| 2026-05-05 20:33 | 39.89492 | 118.86747 | 34814 ft | 455 kts | 26° |
| 2026-05-05 20:34 | 39.94616 | 118.91663 | 34816 ft | 457 kts | 26° |
| 2026-05-05 20:34 | 39.99756 | 118.96562 | 34824 ft | 459 kts | 25° |
| 2026-05-05 20:35 | 40.04917 | 119.01470 | 34822 ft | 454 kts | 25° |
| 2026-05-05 20:35 | 40.10066 | 119.06348 | 34829 ft | 458 kts | 25° |
| 2026-05-05 20:36 | 40.15189 | 119.11201 | 34838 ft | 458 kts | 25° |
| 2026-05-05 20:36 | 40.20351 | 119.16106 | 34850 ft | 453 kts | 25° |
| 2026-05-05 20:37 | 40.25456 | 119.20937 | 34865 ft | 457 kts | 24° |
| 2026-05-05 20:37 | 40.30609 | 119.25743 | 34870 ft | 454 kts | 24° |
| 2026-05-05 20:38 | 40.35775 | 119.30545 | 34870 ft | 454 kts | 24° |
| 2026-05-05 20:38 | 40.40940 | 119.35355 | 34874 ft | 457 kts | 24° |
| 2026-05-05 20:39 | 40.46120 | 119.40209 | 34868 ft | 451 kts | 24° |
| 2026-05-05 20:39 | 40.51259 | 119.45029 | 34869 ft | 457 kts | 24° |
| 2026-05-05 20:40 | 40.56441 | 119.49903 | 34866 ft | 453 kts | 24° |
| 2026-05-05 20:40 | 40.61597 | 119.54761 | 34877 ft | 459 kts | 24° |
| 2026-05-05 20:41 | 40.66752 | 119.59632 | 34870 ft | 456 kts | 24° |
| 2026-05-05 20:41 | 40.71915 | 119.64517 | 34878 ft | 459 kts | 24° |
| 2026-05-05 20:42 | 40.77069 | 119.69402 | 34883 ft | 455 kts | 25° |
| 2026-05-05 20:42 | 40.82252 | 119.74327 | 34890 ft | 461 kts | 25° |
| 2026-05-05 20:43 | 40.87494 | 119.79314 | 34892 ft | 462 kts | 25° |
| 2026-05-05 20:43 | 40.92716 | 119.84304 | 34891 ft | 461 kts | 25° |
| 2026-05-05 20:44 | 40.97885 | 119.89259 | 34896 ft | 462 kts | 25° |
| 2026-05-05 20:44 | 41.03133 | 119.94283 | 34904 ft | 459 kts | 25° |
| 2026-05-05 20:45 | 41.10966 | 120.01798 | 34901 ft | 463 kts | 25° |
| 2026-05-05 20:45 | 41.16199 | 120.06832 | 34895 ft | 466 kts | 25° |
| 2026-05-05 20:46 | 41.21445 | 120.11897 | 34898 ft | 464 kts | 25° |
| 2026-05-05 20:46 | 41.26678 | 120.16966 | 34899 ft | 464 kts | 26° |
| 2026-05-05 20:47 | 41.31934 | 120.22056 | 34896 ft | 469 kts | 26° |
| 2026-05-05 20:47 | 41.37190 | 120.27164 | 34903 ft | 463 kts | 26° |
| 2026-05-05 20:48 | 41.42387 | 120.32223 | 34902 ft | 465 kts | 26° |
| 2026-05-05 20:48 | 41.47584 | 120.37485 | 34790 ft | 478 kts | 33° |
| 2026-05-05 20:49 | 41.49868 | 120.40693 | 34893 ft | 488 kts | 42° |
| 2026-05-05 20:49 | 41.51807 | 120.44534 | 34895 ft | 499 kts | 54° |
| 2026-05-05 20:49 | 41.53225 | 120.48823 | 34909 ft | 511 kts | 64° |
| 2026-05-05 20:49 | 41.54144 | 120.53385 | 34922 ft | 517 kts | 73° |
| 2026-05-05 20:50 | 41.55079 | 120.62994 | 34912 ft | 524 kts | 81° |
| 2026-05-05 20:50 | 41.55533 | 120.72632 | 34908 ft | 518 kts | 84° |
| 2026-05-05 20:51 | 41.55905 | 120.82285 | 34903 ft | 521 kts | 84° |
| 2026-05-05 20:51 | 41.56303 | 120.91921 | 34805 ft | 521 kts | 83° |
| 2026-05-05 20:52 | 41.56518 | 120.96745 | 34600 ft | 521 kts | 83° |
| 2026-05-05 20:52 | 41.56742 | 121.01598 | 34359 ft | 515 kts | 84° |
| 2026-05-05 20:52 | 41.56965 | 121.06358 | 34116 ft | 512 kts | 83° |
| 2026-05-05 20:52 | 41.57193 | 121.11107 | 33845 ft | 515 kts | 83° |
| 2026-05-05 20:53 | 41.57419 | 121.15823 | 33591 ft | 514 kts | 84° |
| 2026-05-05 20:53 | 41.57642 | 121.20607 | 33320 ft | 513 kts | 85° |
| 2026-05-05 20:53 | 41.57825 | 121.25388 | 33052 ft | 515 kts | 85° |
| 2026-05-05 20:53 | 41.57974 | 121.30157 | 32771 ft | 514 kts | 86° |
| 2026-05-05 20:54 | 41.58103 | 121.34940 | 32501 ft | 514 kts | 86° |
| 2026-05-05 20:54 | 41.58221 | 121.39642 | 32234 ft | 515 kts | 86° |
| 2026-05-05 20:54 | 41.58338 | 121.44445 | 31964 ft | 516 kts | 86° |
| 2026-05-05 20:54 | 41.58456 | 121.49221 | 31690 ft | 517 kts | 86° |
| 2026-05-05 20:55 | 41.58574 | 121.54029 | 31424 ft | 517 kts | 86° |
| 2026-05-05 20:55 | 41.58691 | 121.58781 | 31152 ft | 516 kts | 86° |
| 2026-05-05 20:55 | 41.58809 | 121.63575 | 30888 ft | 518 kts | 86° |
| 2026-05-05 20:55 | 41.58930 | 121.68433 | 30631 ft | 520 kts | 87° |
| 2026-05-05 20:56 | 41.59050 | 121.73243 | 30368 ft | 521 kts | 87° |
| 2026-05-05 20:56 | 41.59169 | 121.78071 | 30099 ft | 522 kts | 88° |
| 2026-05-05 20:56 | 41.59288 | 121.82930 | 29842 ft | 523 kts | 88° |
| 2026-05-05 20:56 | 41.59405 | 121.87803 | 29577 ft | 522 kts | 88° |
| 2026-05-05 20:57 | 41.59518 | 121.92605 | 29322 ft | 521 kts | 88° |
| 2026-05-05 20:57 | 41.59631 | 121.97431 | 29059 ft | 521 kts | 88° |
| 2026-05-05 20:57 | 41.59741 | 122.02255 | 28806 ft | 523 kts | 88° |
| 2026-05-05 20:57 | 41.59792 | 122.07127 | 28549 ft | 521 kts | 90° |
| 2026-05-05 20:58 | 41.59651 | 122.11902 | 28294 ft | 519 kts | 94° |
| 2026-05-05 20:58 | 41.59336 | 122.16660 | 28032 ft | 513 kts | 96° |
| 2026-05-05 20:58 | 41.58896 | 122.21407 | 27775 ft | 510 kts | 98° |
| 2026-05-05 20:58 | 41.58392 | 122.26067 | 27517 ft | 512 kts | 99° |
| 2026-05-05 20:59 | 41.57850 | 122.30746 | 27261 ft | 509 kts | 99° |
| 2026-05-05 20:59 | 41.57302 | 122.35358 | 27001 ft | 504 kts | 100° |
| 2026-05-05 20:59 | 41.56749 | 122.39990 | 26580 ft | 498 kts | 99° |
| 2026-05-05 20:59 | 41.56212 | 122.44510 | 26040 ft | 492 kts | 99° |
| 2026-05-05 21:00 | 41.55684 | 122.48998 | 25469 ft | 487 kts | 99° |
| 2026-05-05 21:00 | 41.55168 | 122.53418 | 24880 ft | 483 kts | 99° |
| 2026-05-05 21:00 | 41.54653 | 122.57856 | 24287 ft | 479 kts | 99° |
| 2026-05-05 21:00 | 41.54151 | 122.62206 | 23702 ft | 475 kts | 99° |
| 2026-05-05 21:01 | 41.53654 | 122.66524 | 23114 ft | 470 kts | 100° |
| 2026-05-05 21:01 | 41.53162 | 122.70808 | 22525 ft | 466 kts | 100° |
| 2026-05-05 21:01 | 41.52674 | 122.75043 | 21943 ft | 462 kts | 100° |
| 2026-05-05 21:01 | 41.52184 | 122.79279 | 21356 ft | 458 kts | 100° |
| 2026-05-05 21:02 | 41.51701 | 122.83443 | 20761 ft | 454 kts | 100° |
| 2026-05-05 21:02 | 41.51220 | 122.87574 | 20178 ft | 450 kts | 100° |
| 2026-05-05 21:02 | 41.50744 | 122.91647 | 19588 ft | 446 kts | 101° |
| 2026-05-05 21:02 | 41.50265 | 122.95721 | 19013 ft | 442 kts | 101° |
| 2026-05-05 21:03 | 41.49833 | 122.99389 | 18461 ft | 438 kts | 101° |
| 2026-05-05 21:03 | 41.49387 | 123.03153 | 17918 ft | 435 kts | 101° |
| 2026-05-05 21:03 | 41.48921 | 123.07071 | 17332 ft | 431 kts | 101° |
| 2026-05-05 21:03 | 41.48451 | 123.11007 | 16746 ft | 427 kts | 101° |
| 2026-05-05 21:04 | 41.48001 | 123.14745 | 16184 ft | 424 kts | 101° |
| 2026-05-05 21:04 | 41.47574 | 123.18600 | 15596 ft | 420 kts | 99° |
| 2026-05-05 21:04 | 41.47367 | 123.22443 | 15010 ft | 418 kts | 91° |
| 2026-05-05 21:04 | 41.47660 | 123.26260 | 14435 ft | 415 kts | 80° |
| 2026-05-05 21:05 | 41.48295 | 123.29986 | 13845 ft | 411 kts | 76° |
| 2026-05-05 21:05 | 41.49077 | 123.33646 | 13237 ft | 409 kts | 74° |
| 2026-05-05 21:05 | 41.49915 | 123.37268 | 12631 ft | 405 kts | 73° |
| 2026-05-05 21:05 | 41.50819 | 123.40550 | 12077 ft | 403 kts | 65° |
| 2026-05-05 21:06 | 41.52033 | 123.43697 | 11521 ft | 400 kts | 61° |
| 2026-05-05 21:06 | 41.53379 | 123.46982 | 10938 ft | 397 kts | 61° |
| 2026-05-05 21:06 | 41.54700 | 123.50165 | 10570 ft | 389 kts | 61° |
| 2026-05-05 21:06 | 41.55983 | 123.53264 | 10411 ft | 375 kts | 61° |
| 2026-05-05 21:07 | 41.57016 | 123.56332 | 10447 ft | 353 kts | 69° |
| 2026-05-05 21:07 | 41.58187 | 123.59149 | 10333 ft | 341 kts | 51° |
| 2026-05-05 21:07 | 41.59776 | 123.61404 | 10203 ft | 329 kts | 40° |
| 2026-05-05 21:07 | 41.61470 | 123.63421 | 9944 ft | 323 kts | 39° |
| 2026-05-05 21:08 | 41.63127 | 123.65455 | 9498 ft | 325 kts | 42° |
| 2026-05-05 21:08 | 41.64720 | 123.67603 | 9132 ft | 324 kts | 44° |
| 2026-05-05 21:08 | 41.66233 | 123.69796 | 8977 ft | 313 kts | 46° |
| 2026-05-05 21:08 | 41.67654 | 123.71930 | 8889 ft | 301 kts | 46° |
| 2026-05-05 21:09 | 41.69020 | 123.74013 | 8686 ft | 295 kts | 46° |
| 2026-05-05 21:09 | 41.70370 | 123.76088 | 8296 ft | 298 kts | 46° |
| 2026-05-05 21:09 | 41.71735 | 123.78188 | 7880 ft | 301 kts | 46° |
| 2026-05-05 21:09 | 41.73120 | 123.80311 | 7489 ft | 302 kts | 45° |
| 2026-05-05 21:10 | 41.74514 | 123.82436 | 7070 ft | 304 kts | 44° |
| 2026-05-05 21:10 | 41.75915 | 123.84274 | 6689 ft | 300 kts | 33° |
| 2026-05-05 21:10 | 41.77698 | 123.85502 | 6402 ft | 277 kts | 2° |
| 2026-05-05 21:10 | 41.79486 | 123.85431 | 6117 ft | 249 kts | 334° |
| 2026-05-05 21:11 | 41.80992 | 123.84453 | 5828 ft | 230 kts | 315° |
| 2026-05-05 21:11 | 41.82188 | 123.83119 | 5545 ft | 221 kts | 308° |
| 2026-05-05 21:11 | 41.83169 | 123.81587 | 5271 ft | 207 kts | 290° |
| 2026-05-05 21:11 | 41.83498 | 123.79842 | 5050 ft | 189 kts | 264° |
| 2026-05-05 21:12 | 41.83268 | 123.78178 | 4972 ft | 173 kts | 250° |
| 2026-05-05 21:12 | 41.82761 | 123.76762 | 4986 ft | 165 kts | 234° |
| 2026-05-05 21:12 | 41.82011 | 123.75649 | 4990 ft | 155 kts | 228° |
| 2026-05-05 21:12 | 41.81303 | 123.74623 | 4952 ft | 146 kts | 231° |
| 2026-05-05 21:13 | 41.80645 | 123.73589 | 4759 ft | 146 kts | 231° |
| 2026-05-05 21:13 | 41.79995 | 123.72589 | 4566 ft | 138 kts | 230° |
| 2026-05-05 21:13 | 41.79378 | 123.71648 | 4385 ft | 130 kts | 230° |
| 2026-05-05 21:13 | 41.78786 | 123.70746 | 4220 ft | 126 kts | 229° |
| 2026-05-05 21:14 | 41.78209 | 123.69865 | 4055 ft | 127 kts | 229° |
| 2026-05-05 21:14 | 41.77630 | 123.68984 | 3919 ft | 126 kts | 229° |
| 2026-05-05 21:14 | 41.77052 | 123.68105 | 3717 ft | 126 kts | 229° |
| 2026-05-05 21:14 | 41.76467 | 123.67217 | 3562 ft | 126 kts | 227° |
| 2026-05-05 21:15 | 41.75888 | 123.66338 | 3398 ft | 128 kts | 227° |
| 2026-05-05 21:15 | 41.75296 | 123.65440 | 3215 ft | 126 kts | 227° |
| 2026-05-05 21:15 | 41.74706 | 123.64546 | 3052 ft | 128 kts | 226° |
| 2026-05-05 21:15 | 41.74111 | 123.63646 | 2862 ft | 128 kts | 226° |
| 2026-05-05 21:16 | 41.73512 | 123.62738 | 2692 ft | 128 kts | 226° |
| 2026-05-05 21:16 | 41.72919 | 123.61836 | 2515 ft | 131 kts | 226° |
| 2026-05-05 21:16 | 41.72309 | 123.60910 | 2333 ft | 133 kts | 225° |
| 2026-05-05 21:16 | 41.71692 | 123.59980 | 2160 ft | 134 kts | 224° |
| 2026-05-05 21:17 | 41.71070 | 123.59036 | 1983 ft | 136 kts | 224° |
| 2026-05-05 21:17 | 41.70441 | 123.58080 | 1801 ft | 137 kts | 224° |
| 2026-05-05 21:17 | 41.69807 | 123.57124 | 1621 ft | 138 kts | 224° |
| 2026-05-05 21:17 | 41.69167 | 123.56154 | 1435 ft | 138 kts | 224° |
| 2026-05-05 21:18 | 41.68530 | 123.55191 | 1256 ft | 140 kts | 224° |
| 2026-05-05 21:18 | 41.67876 | 123.54202 | 1060 ft | 141 kts | 224° |
| 2026-05-05 21:18 | 41.67220 | 123.53207 | 877 ft | 143 kts | 224° |
| 2026-05-05 21:18 | 41.66561 | 123.52210 | 680 ft | 144 kts | 225° |
| 2026-05-05 21:19 | 41.65896 | 123.51200 | 469 ft | 144 kts | 224° |
| 2026-05-05 21:19 | 41.65230 | 123.50206 | 300 ft | 143 kts | 225° |
| 2026-05-05 21:19 | 41.64597 | 123.49226 | 206 ft | 128 kts | 226° |
| 2026-05-05 21:19 | 41.64156 | 123.48579 | 206 ft | 59 kts | 228° |
| 2026-05-05 21:20 | 41.63952 | 123.48266 | 206 ft | 42 kts | 226° |
| 2026-05-05 21:20 | 41.63801 | 123.48052 | 206 ft | 18 kts | 218° |
| 2026-05-05 21:20 | 41.63696 | 123.47965 | 206 ft | 17 kts | 205° |
| 2026-05-05 21:20 | 41.63591 | 123.47913 | 206 ft | 14 kts | 200° |
| 2026-05-05 21:21 | 41.63512 | 123.47910 | 206 ft | 11 kts | 138° |
| 2026-05-05 21:21 | 41.63518 | 123.47991 | 206 ft | 10 kts | 50° |
| 2026-05-05 21:21 | 41.63580 | 123.48081 | 206 ft | 16 kts | 51° |
| 2026-05-05 21:21 | 41.63655 | 123.48194 | 206 ft | 18 kts | 49° |
| 2026-05-05 21:22 | 41.63696 | 123.48307 | 206 ft | 15 kts | 123° |
| 2026-05-05 21:22 | 41.63632 | 123.48410 | 206 ft | 8 kts | 128° |
| 2026-05-05 21:22 | 41.63594 | 123.48467 | 206 ft | 8 kts | 139° |
| 2026-05-05 21:22 | 41.63565 | 123.48525 | 206 ft | 7 kts | 98° |
| 2026-05-05 21:23 | 41.63584 | 123.48583 | 206 ft | 6 kts | 73° |
| 2026-05-05 21:23 | 41.63568 | 123.48633 | 206 ft | 5 kts | 143° |
| 2026-05-05 21:23 | 41.63541 | 123.48666 | 206 ft | 1 kts | 145° |